Time;durP1;ratioP1;P1;durP2;ratioP2;P2;SDS_P1;SDS_P2;PMS_P1;PMS_P2;Temp;Humidity;BMP_temperature;BMP_pressure;BME280_temperature;BME280_humidity;BME280_pressure;Samples;Min_cycle;Max_cycle;Signal;HPM_P1;HPM_P2
2022/01/22 00:00:01;;;;;;;17.52;8.80;;;;;;;;;;5044219;28;20206;-69
2022/01/22 00:02:27;;;;;;;16.90;9.25;;;;;;;;;;5044147;28;20198;-69
2022/01/22 00:04:55;;;;;;;13.80;9.35;;;;;;;;;;5044341;28;20244;-69
2022/01/22 00:07:21;;;;;;;16.45;9.52;;;;;;;;;;5043975;28;20205;-69
2022/01/22 00:09:51;;;;;;;14.43;9.10;;;;;;;;;;5044245;28;20528;-69
2022/01/22 00:12:30;;;;;;;13.73;9.20;;;;;;;;;;5044005;28;20206;-69
2022/01/22 00:14:56;;;;;;;12.30;9.00;;;;;;;;;;5043269;28;20210;-69
2022/01/22 00:17:22;;;;;;;15.25;8.95;;;;;;;;;;5043817;28;20218;-69
2022/01/22 00:19:49;;;;;;;15.68;9.30;;;;;;;;;;5043962;28;20197;-69
2022/01/22 00:22:17;;;;;;;16.88;9.30;;;;;;;;;;5044019;28;20414;-69
2022/01/22 00:24:46;;;;;;;13.85;8.77;;;;;;;;;;5043848;28;20198;-69
2022/01/22 00:27:12;;;;;;;12.45;8.70;;;;;;;;;;5044071;28;20240;-69
2022/01/22 00:29:39;;;;;;;19.88;9.52;;;;;;;;;;5043642;28;20206;-71
2022/01/22 00:32:05;;;;;;;17.40;9.90;;;;;;;;;;5043707;28;20198;-69
2022/01/22 00:34:32;;;;;;;15.23;9.73;;;;;;;;;;5043657;28;20205;-69
2022/01/22 00:36:58;;;;;;;18.25;10.23;;;;;;;;;;5043426;28;20532;-69
2022/01/22 00:39:26;;;;;;;21.23;9.95;;;;;;;;;;5043518;28;20198;-69
2022/01/22 00:41:52;;;;;;;13.90;8.75;;;;;;;;;;5043570;28;20388;-69
2022/01/22 00:44:19;;;;;;;16.58;10.55;;;;;;;;;;5043347;28;20221;-69
2022/01/22 00:46:45;;;;;;;19.02;10.32;;;;;;;;;;5043385;28;20232;-69
2022/01/22 00:49:12;;;;;;;17.30;9.55;;;;;;;;;;5043620;28;20391;-69
2022/01/22 00:51:38;;;;;;;14.98;9.65;;;;;;;;;;5043313;28;20204;-69
2022/01/22 00:54:04;;;;;;;17.10;9.65;;;;;;;;;;5043307;28;20198;-69
2022/01/22 00:56:32;;;;;;;17.02;8.93;;;;;;;;;;5042862;28;20218;-69
2022/01/22 00:58:59;;;;;;;12.85;8.15;;;;;;;;;;5043392;28;20435;-69
2022/01/22 01:01:25;;;;;;;14.55;8.68;;;;;;;;;;5043286;28;20205;-69
2022/01/22 01:03:51;;;;;;;17.98;8.40;;;;;;;;;;5043314;28;20198;-69
2022/01/22 01:06:18;;;;;;;13.88;8.27;;;;;;;;;;5042851;28;20213;-69
2022/01/22 01:08:44;;;;;;;14.75;7.75;;;;;;;;;;5043062;28;20206;-69
2022/01/22 01:11:13;;;;;;;12.75;7.65;;;;;;;;;;5042878;28;20623;-69
2022/01/22 01:13:45;;;;;;;9.25;7.35;;;;;;;;;;5042864;28;20198;-69
2022/01/22 01:16:19;;;;;;;12.93;8.02;;;;;;;;;;5042645;28;20554;-69
2022/01/22 01:32:34;;;;;;;13.02;8.18;;;;;;;;;;5042606;28;20212;-69
2022/01/22 01:35:05;;;;;;;12.10;7.97;;;;;;;;;;5042688;28;20223;-69
2022/01/22 01:37:32;;;;;;;12.32;8.23;;;;;;;;;;5042285;28;20419;-69
2022/01/22 01:40:02;;;;;;;14.23;8.48;;;;;;;;;;5042464;28;20235;-69
2022/01/22 01:42:35;;;;;;;14.70;7.68;;;;;;;;;;5042359;28;20269;-69
2022/01/22 01:45:04;;;;;;;13.20;8.57;;;;;;;;;;5042639;28;20197;-69
2022/01/22 01:47:31;;;;;;;10.60;7.50;;;;;;;;;;5042409;28;20198;-69
2022/01/22 01:49:57;;;;;;;14.48;8.00;;;;;;;;;;5042175;28;20197;-69
2022/01/22 01:52:32;;;;;;;16.48;8.77;;;;;;;;;;5042229;28;20198;-69
2022/01/22 01:55:03;;;;;;;19.25;9.43;;;;;;;;;;5042143;28;20215;-70
2022/01/22 01:57:38;;;;;;;13.82;8.10;;;;;;;;;;5042094;28;20544;-69
2022/01/22 02:00:07;;;;;;;14.15;8.18;;;;;;;;;;5042325;28;20193;-70
2022/01/22 02:02:35;;;;;;;10.75;7.85;;;;;;;;;;5042044;28;20198;-69
2022/01/22 02:05:01;;;;;;;15.05;7.47;;;;;;;;;;5042038;28;20204;-69
2022/01/22 02:07:28;;;;;;;8.95;7.25;;;;;;;;;;5041676;28;20440;-69
2022/01/22 02:09:54;;;;;;;7.80;6.85;;;;;;;;;;5041901;28;20197;-70
2022/01/22 02:12:41;;;;;;;10.75;7.57;;;;;;;;;;5042122;28;20204;-69
2022/01/22 02:23:35;;;;;;;11.63;6.82;;;;;;;;;;5041939;28;20195;-69
2022/01/22 02:26:02;;;;;;;10.07;7.00;;;;;;;;;;5041588;28;20193;-69
2022/01/22 02:28:29;;;;;;;9.27;6.70;;;;;;;;;;5041908;28;20512;-69
2022/01/22 02:31:01;;;;;;;12.60;6.95;;;;;;;;;;5042043;28;20403;-69
2022/01/22 02:33:34;;;;;;;10.82;6.85;;;;;;;;;;5041904;28;20295;-69
2022/01/22 02:36:06;;;;;;;9.13;7.93;;;;;;;;;;5041613;28;20544;-70
2022/01/22 02:38:40;;;;;;;10.18;7.07;;;;;;;;;;5042861;28;20225;-69
2022/01/22 02:41:13;;;;;;;9.52;7.13;;;;;;;;;;5046012;28;20198;-70
2022/01/22 02:43:39;;;;;;;12.00;7.32;;;;;;;;;;5045906;28;20505;-69
2022/01/22 02:46:05;;;;;;;10.73;6.88;;;;;;;;;;5045080;28;20194;-69
2022/01/22 02:48:32;;;;;;;9.93;6.47;;;;;;;;;;5045569;28;20202;-69
2022/01/22 02:50:58;;;;;;;9.20;6.43;;;;;;;;;;5045792;28;20197;-69
2022/01/22 02:53:25;;;;;;;7.28;6.47;;;;;;;;;;5045422;28;20209;-69
2022/01/22 02:55:53;;;;;;;9.27;6.68;;;;;;;;;;5045297;28;20220;-69
2022/01/22 02:58:20;;;;;;;10.10;6.53;;;;;;;;;;5045420;28;20221;-70
2022/01/22 03:00:46;;;;;;;7.82;6.95;;;;;;;;;;5045359;28;20245;-69
2022/01/22 03:03:14;;;;;;;9.55;6.82;;;;;;;;;;5045645;28;20205;-69
2022/01/22 03:05:40;;;;;;;7.53;6.78;;;;;;;;;;5045432;28;20217;-69
2022/01/22 03:08:09;;;;;;;7.22;6.55;;;;;;;;;;5045167;28;20193;-69
2022/01/22 03:10:37;;;;;;;13.20;7.30;;;;;;;;;;5045176;28;20198;-69
2022/01/22 03:13:21;;;;;;;8.52;6.70;;;;;;;;;;5045152;28;20198;-69
2022/01/22 03:16:01;;;;;;;10.77;6.63;;;;;;;;;;5044984;28;20209;-69
2022/01/22 03:18:41;;;;;;;9.75;7.20;;;;;;;;;;5045243;28;20198;-69
2022/01/22 03:21:15;;;;;;;10.75;6.90;;;;;;;;;;5045127;28;20198;-69
2022/01/22 03:29:30;;;;;;;7.70;6.82;;;;;;;;;;5045053;28;20212;-70
2022/01/22 03:31:57;;;;;;;10.13;7.00;;;;;;;;;;5044836;28;20205;-69
2022/01/22 03:34:23;;;;;;;8.02;6.80;;;;;;;;;;5044680;28;20197;-69
2022/01/22 03:36:49;;;;;;;9.38;8.02;;;;;;;;;;5044414;28;20256;-69
2022/01/22 03:39:17;;;;;;;9.23;6.93;;;;;;;;;;5044642;28;20236;-69
2022/01/22 03:41:43;;;;;;;8.50;7.13;;;;;;;;;;5044588;28;20198;-69
2022/01/22 03:44:11;;;;;;;8.23;6.78;;;;;;;;;;5045012;28;20197;-69
2022/01/22 03:46:41;;;;;;;10.30;7.95;;;;;;;;;;5044268;28;20194;-69
2022/01/22 03:49:10;;;;;;;13.50;6.78;;;;;;;;;;5044532;28;20244;-69
2022/01/22 03:51:36;;;;;;;7.97;7.10;;;;;;;;;;5043823;28;20228;-70
2022/01/22 03:54:03;;;;;;;8.63;6.93;;;;;;;;;;5044511;28;20411;-70
2022/01/22 03:56:29;;;;;;;8.65;6.47;;;;;;;;;;5044153;28;20217;-69
2022/01/22 03:58:56;;;;;;;10.93;6.88;;;;;;;;;;5044466;28;20497;-70
2022/01/22 04:01:59;;;;;;;10.88;7.05;;;;;;;;;;5044277;28;20198;-69
2022/01/22 04:04:28;;;;;;;7.18;6.47;;;;;;;;;;5044051;28;20201;-69
2022/01/22 04:09:44;;;;;;;7.88;7.18;;;;;;;;;;5018746;28;20197;-69
2022/01/22 04:12:11;;;;;;;15.43;6.85;;;;;;;;;;5044515;28;20236;-70
2022/01/22 04:14:45;;;;;;;14.20;7.80;;;;;;;;;;5043953;28;20293;-69
2022/01/22 04:17:23;;;;;;;8.63;7.47;;;;;;;;;;5043766;28;20293;-69
2022/01/22 04:25:25;;;;;;;8.35;7.55;;;;;;;;;;5018154;28;20194;-69
2022/01/22 04:27:53;;;;;;;8.30;7.47;;;;;;;;;;5043761;28;20221;-69
2022/01/22 04:30:20;;;;;;;9.25;7.32;;;;;;;;;;5043812;28;20200;-69
2022/01/22 04:32:46;;;;;;;8.57;7.70;;;;;;;;;;5043573;28;20389;-69
2022/01/22 04:35:14;;;;;;;10.48;7.93;;;;;;;;;;5043750;28;20404;-70
2022/01/22 04:37:40;;;;;;;9.25;7.97;;;;;;;;;;5043420;28;20229;-69
2022/01/22 04:40:08;;;;;;;9.15;7.35;;;;;;;;;;5043670;28;20221;-69
2022/01/22 04:42:37;;;;;;;12.50;8.40;;;;;;;;;;5043490;28;20205;-70
2022/01/22 04:45:10;;;;;;;9.02;8.00;;;;;;;;;;5043455;28;20452;-69
2022/01/22 04:47:46;;;;;;;11.30;8.65;;;;;;;;;;5043360;28;20265;-69
2022/01/22 04:55:44;;;;;;;8.70;7.72;;;;;;;;;;5043132;28;20185;-69
2022/01/22 04:58:11;;;;;;;11.05;8.90;;;;;;;;;;5043167;28;20224;-69
2022/01/22 05:00:38;;;;;;;10.65;8.18;;;;;;;;;;5043261;28;20397;-69
2022/01/22 05:03:05;;;;;;;13.20;8.65;;;;;;;;;;5043062;28;20206;-69
2022/01/22 05:05:33;;;;;;;10.60;8.23;;;;;;;;;;5042958;28;20217;-70
2022/01/22 05:07:59;;;;;;;10.73;8.38;;;;;;;;;;5042963;28;20292;-70
2022/01/22 05:10:26;;;;;;;13.52;7.95;;;;;;;;;;5043164;28;20205;-69
2022/01/22 05:12:53;;;;;;;10.27;8.05;;;;;;;;;;5043145;28;20198;-69
2022/01/22 05:15:19;;;;;;;9.77;8.48;;;;;;;;;;5042757;28;20206;-70
2022/01/22 05:17:47;;;;;;;11.65;8.55;;;;;;;;;;5042800;28;20228;-69
2022/01/22 05:20:18;;;;;;;13.82;8.55;;;;;;;;;;5042848;28;20197;-69
2022/01/22 05:22:55;;;;;;;11.82;8.30;;;;;;;;;;5042721;28;20221;-70
2022/01/22 05:25:26;;;;;;;12.10;8.57;;;;;;;;;;5042574;28;20198;-69
2022/01/22 05:28:06;;;;;;;10.82;8.85;;;;;;;;;;5042957;28;20224;-69
2022/01/22 05:36:54;;;;;;;10.80;9.18;;;;;;;;;;5037168;28;20221;-69
2022/01/22 05:39:04;;;;;;;13.02;8.85;;;;;;;;;;5042442;28;20479;-69
2022/01/22 05:41:31;;;;;;;11.43;8.82;;;;;;;;;;5042469;28;20236;-69
2022/01/22 05:43:58;;;;;;;11.07;9.43;;;;;;;;;;5042849;28;20496;-69
2022/01/22 05:46:24;;;;;;;9.95;8.80;;;;;;;;;;5042377;28;20236;-69
2022/01/22 05:48:51;;;;;;;10.57;9.02;;;;;;;;;;5042416;28;20201;-69
2022/01/22 05:51:18;;;;;;;11.05;8.75;;;;;;;;;;5042373;28;20406;-69
2022/01/22 05:53:48;;;;;;;13.52;8.50;;;;;;;;;;5042264;28;20206;-69
2022/01/22 06:01:44;;;;;;;11.13;8.50;;;;;;;;;;5042238;28;20228;-69
2022/01/22 06:04:10;;;;;;;12.45;9.30;;;;;;;;;;5042186;28;20197;-69
2022/01/22 06:06:37;;;;;;;12.43;8.45;;;;;;;;;;5042075;28;20280;-69
2022/01/22 06:09:07;;;;;;;11.98;9.10;;;;;;;;;;5042134;28;20198;-69
2022/01/22 06:11:50;;;;;;;10.63;9.52;;;;;;;;;;5042013;28;20201;-69
2022/01/22 06:14:17;;;;;;;11.02;8.98;;;;;;;;;;5041846;28;20198;-69
2022/01/22 06:16:43;;;;;;;12.35;9.70;;;;;;;;;;5041770;28;20248;-70
2022/01/22 06:19:10;;;;;;;11.68;8.77;;;;;;;;;;5042251;28;20529;-69
2022/01/22 06:21:36;;;;;;;12.57;9.48;;;;;;;;;;5041911;28;20204;-69
2022/01/22 06:24:03;;;;;;;14.82;9.82;;;;;;;;;;5042050;28;20197;-69
2022/01/22 06:26:29;;;;;;;11.48;9.07;;;;;;;;;;5041730;28;20229;-69
2022/01/22 06:28:58;;;;;;;10.85;9.52;;;;;;;;;;5041796;28;20194;-69
2022/01/22 06:31:25;;;;;;;12.55;9.60;;;;;;;;;;5041787;28;20387;-69
2022/01/22 06:33:51;;;;;;;13.32;9.48;;;;;;;;;;5042082;28;20205;-69
2022/01/22 06:36:18;;;;;;;13.35;8.88;;;;;;;;;;5041722;28;20205;-69
2022/01/22 06:38:44;;;;;;;11.85;9.48;;;;;;;;;;5041644;28;20220;-69
2022/01/22 06:43:54;;;;;;;11.80;8.90;;;;;;;;;;5041802;28;20427;-69
2022/01/22 06:46:22;;;;;;;10.20;8.80;;;;;;;;;;5041599;28;20198;-69
2022/01/22 06:48:48;;;;;;;12.50;9.10;;;;;;;;;;5041647;28;20193;-69
2022/01/22 06:51:16;;;;;;;10.90;8.48;;;;;;;;;;5041794;28;20202;-69
2022/01/22 06:53:42;;;;;;;12.52;9.20;;;;;;;;;;5041747;28;20198;-69
2022/01/22 06:56:10;;;;;;;13.52;9.65;;;;;;;;;;5041375;28;20198;-69
2022/01/22 06:58:36;;;;;;;15.90;9.18;;;;;;;;;;5041467;28;20233;-69
2022/01/22 07:01:03;;;;;;;12.98;9.98;;;;;;;;;;5041843;28;20198;-69
2022/01/22 07:03:31;;;;;;;14.38;9.75;;;;;;;;;;5041694;28;20221;-69
2022/01/22 07:05:57;;;;;;;11.60;9.02;;;;;;;;;;5041302;28;20288;-70
2022/01/22 07:08:24;;;;;;;13.80;9.23;;;;;;;;;;5041675;28;20409;-70
2022/01/22 07:10:50;;;;;;;16.02;10.02;;;;;;;;;;5041511;28;20213;-69
2022/01/22 07:13:17;;;;;;;11.77;9.75;;;;;;;;;;5041766;28;20208;-69
2022/01/22 07:15:43;;;;;;;10.68;9.10;;;;;;;;;;5041285;28;20388;-70
2022/01/22 07:18:12;;;;;;;12.35;9.25;;;;;;;;;;5041319;28;20240;-69
2022/01/22 07:20:41;;;;;;;13.82;9.68;;;;;;;;;;5041539;28;20204;-69
2022/01/22 07:23:16;;;;;;;12.63;9.48;;;;;;;;;;5041565;28;20228;-69
2022/01/22 07:25:43;;;;;;;11.45;9.50;;;;;;;;;;5042873;28;20224;-69
2022/01/22 07:28:10;;;;;;;12.77;9.68;;;;;;;;;;5045113;28;20508;-69
2022/01/22 07:30:37;;;;;;;14.70;10.65;;;;;;;;;;5045124;28;20198;-69
2022/01/22 07:33:03;;;;;;;14.77;10.30;;;;;;;;;;5044971;28;20198;-69
2022/01/22 07:35:33;;;;;;;16.55;10.73;;;;;;;;;;5044620;28;20198;-69
2022/01/22 07:38:01;;;;;;;14.90;11.43;;;;;;;;;;5044621;28;20241;-69
2022/01/22 07:40:28;;;;;;;16.77;10.02;;;;;;;;;;5044934;28;20197;-69
2022/01/22 07:42:55;;;;;;;15.38;10.18;;;;;;;;;;5044864;28;20197;-69
2022/01/22 07:45:21;;;;;;;13.70;10.05;;;;;;;;;;5044394;28;20224;-69
2022/01/22 07:47:48;;;;;;;13.40;10.75;;;;;;;;;;5044709;28;20381;-69
2022/01/22 07:50:14;;;;;;;14.05;11.07;;;;;;;;;;5044464;28;20197;-69
2022/01/22 07:52:41;;;;;;;11.82;10.57;;;;;;;;;;5044916;28;20243;-69
2022/01/22 07:55:09;;;;;;;18.05;11.23;;;;;;;;;;5044641;28;20534;-69
2022/01/22 07:57:35;;;;;;;15.30;11.77;;;;;;;;;;5044598;28;20431;-69
2022/01/22 08:00:02;;;;;;;17.63;11.57;;;;;;;;;;5044456;28;20209;-69
2022/01/22 08:02:28;;;;;;;16.33;10.73;;;;;;;;;;5044247;28;20197;-69
2022/01/22 08:04:55;;;;;;;14.73;10.98;;;;;;;;;;5044157;28;20206;-69
2022/01/22 08:07:22;;;;;;;18.17;11.55;;;;;;;;;;5044085;28;20217;-69
2022/01/22 08:09:50;;;;;;;13.75;10.60;;;;;;;;;;5044415;28;20236;-69
2022/01/22 08:12:18;;;;;;;12.43;10.90;;;;;;;;;;5044277;28;20394;-70
2022/01/22 08:14:45;;;;;;;20.42;12.48;;;;;;;;;;5043872;28;20251;-69
2022/01/22 08:17:11;;;;;;;15.90;12.10;;;;;;;;;;5043791;28;20197;-69
2022/01/22 08:19:38;;;;;;;17.90;11.85;;;;;;;;;;5043796;28;20228;-69
2022/01/22 08:22:05;;;;;;;16.27;10.95;;;;;;;;;;5044071;28;20244;-69
2022/01/22 08:24:31;;;;;;;14.20;10.88;;;;;;;;;;5044005;28;20401;-69
2022/01/22 08:27:11;;;;;;;21.35;12.23;;;;;;;;;;5043615;28;20205;-69
2022/01/22 08:29:39;;;;;;;15.27;10.88;;;;;;;;;;5043816;28;20201;-69
2022/01/22 08:32:11;;;;;;;18.45;11.85;;;;;;;;;;5043608;28;20387;-69
2022/01/22 08:37:22;;;;;;;16.15;11.05;;;;;;;;;;5043057;28;20192;-69
2022/01/22 08:39:49;;;;;;;15.25;10.90;;;;;;;;;;5043728;28;20236;-69
2022/01/22 08:42:15;;;;;;;17.30;11.68;;;;;;;;;;5043616;28;20197;-69
2022/01/22 08:44:43;;;;;;;16.00;11.70;;;;;;;;;;5043437;28;20197;-69
2022/01/22 08:47:09;;;;;;;19.25;12.38;;;;;;;;;;5043295;28;20205;-69
2022/01/22 08:49:36;;;;;;;21.27;11.98;;;;;;;;;;5043632;28;20193;-69
2022/01/22 08:52:04;;;;;;;15.18;11.95;;;;;;;;;;5043362;28;20213;-69
2022/01/22 08:54:30;;;;;;;15.10;11.23;;;;;;;;;;5043486;28;20599;-69
2022/01/22 08:56:57;;;;;;;14.50;10.85;;;;;;;;;;5042906;28;20436;-69
2022/01/22 08:59:23;;;;;;;14.45;10.98;;;;;;;;;;5043116;28;20229;-69
2022/01/22 09:01:52;;;;;;;15.70;11.73;;;;;;;;;;5042801;28;20197;-69
2022/01/22 09:04:18;;;;;;;19.88;12.32;;;;;;;;;;5043161;28;20246;-70
2022/01/22 09:06:45;;;;;;;19.60;11.52;;;;;;;;;;5042933;28;20225;-69
2022/01/22 09:09:12;;;;;;;17.25;12.23;;;;;;;;;;5043302;28;20402;-69
2022/01/22 09:11:41;;;;;;;16.48;11.30;;;;;;;;;;5043175;28;20205;-69
2022/01/22 09:14:09;;;;;;;17.10;12.18;;;;;;;;;;5043046;28;20198;-69
2022/01/22 09:16:36;;;;;;;20.02;12.63;;;;;;;;;;5042616;28;20213;-69
2022/01/22 09:19:07;;;;;;;18.05;12.27;;;;;;;;;;5043043;28;20222;-69
2022/01/22 09:21:33;;;;;;;16.70;11.73;;;;;;;;;;5043523;28;20205;-69
2022/01/22 09:24:00;;;;;;;21.50;12.68;;;;;;;;;;5043336;28;20259;-70
2022/01/22 09:26:29;;;;;;;20.50;12.65;;;;;;;;;;5042830;28;20240;-69
2022/01/22 09:28:57;;;;;;;22.23;13.45;;;;;;;;;;5042869;28;20201;-69
2022/01/22 09:31:23;;;;;;;19.17;13.40;;;;;;;;;;5042871;28;20500;-69
2022/01/22 09:33:50;;;;;;;22.30;13.85;;;;;;;;;;5042892;28;20420;-69
2022/01/22 09:36:18;;;;;;;19.25;13.93;;;;;;;;;;5042512;28;20528;-69
2022/01/22 09:38:44;;;;;;;18.85;13.32;;;;;;;;;;5042496;28;20217;-69
2022/01/22 09:41:11;;;;;;;21.92;13.35;;;;;;;;;;5044365;28;20210;-69
2022/01/22 09:43:37;;;;;;;19.48;14.02;;;;;;;;;;5047685;28;20197;-70
2022/01/22 09:46:05;;;;;;;28.77;13.90;;;;;;;;;;5042795;28;20198;-69
2022/01/22 09:48:32;;;;;;;22.67;13.43;;;;;;;;;;5041668;28;20193;-70
2022/01/22 09:50:58;;;;;;;21.00;12.85;;;;;;;;;;5042911;28;20198;-69
2022/01/22 09:53:26;;;;;;;26.77;14.23;;;;;;;;;;5042289;28;20360;-69
2022/01/22 09:55:52;;;;;;;19.95;13.55;;;;;;;;;;5042677;28;20197;-69
2022/01/22 09:58:19;;;;;;;27.58;13.25;;;;;;;;;;5042352;28;20405;-69
2022/01/22 10:00:45;;;;;;;24.33;13.70;;;;;;;;;;5042276;28;20197;-70
2022/01/22 10:03:16;;;;;;;17.02;12.70;;;;;;;;;;5042328;28;20197;-69
2022/01/22 10:05:43;;;;;;;24.20;13.40;;;;;;;;;;5041948;28;20288;-70
2022/01/22 10:08:34;;;;;;;18.73;14.00;;;;;;;;;;5042434;28;20194;-69
2022/01/22 10:11:02;;;;;;;21.63;13.70;;;;;;;;;;5027541;28;20567;-69
2022/01/22 10:13:39;;;;;;;24.17;13.05;;;;;;;;;;5042176;28;20205;-69
2022/01/22 10:16:16;;;;;;;22.20;13.88;;;;;;;;;;5041852;28;20205;-70
2022/01/22 10:18:44;;;;;;;21.33;13.77;;;;;;;;;;5042085;28;20221;-69
2022/01/22 10:21:11;;;;;;;25.73;14.57;;;;;;;;;;5042235;28;20202;-69
2022/01/22 10:23:39;;;;;;;22.23;13.43;;;;;;;;;;5042066;28;20208;-69
2022/01/22 10:26:11;;;;;;;27.23;18.38;;;;;;;;;;5041966;28;20269;-69
2022/01/22 10:28:42;;;;;;;25.65;17.25;;;;;;;;;;5042011;28;20194;-71
2022/01/22 10:31:18;;;;;;;25.23;15.65;;;;;;;;;;5041983;28;20202;-69
2022/01/22 10:33:44;;;;;;;29.80;16.00;;;;;;;;;;5042035;28;20197;-69
2022/01/22 10:36:14;;;;;;;30.85;17.38;;;;;;;;;;5041840;28;20201;-69
2022/01/22 10:38:42;;;;;;;32.60;20.80;;;;;;;;;;5042372;28;20210;-69
2022/01/22 10:41:10;;;;;;;23.75;15.70;;;;;;;;;;5042038;28;20198;-70
2022/01/22 10:43:42;;;;;;;26.33;16.17;;;;;;;;;;5042256;28;20197;-69
2022/01/22 10:46:12;;;;;;;20.38;15.02;;;;;;;;;;5041582;28;20551;-69
2022/01/22 10:48:39;;;;;;;24.70;15.82;;;;;;;;;;5041919;28;20264;-69
2022/01/22 10:51:07;;;;;;;22.38;14.23;;;;;;;;;;5041903;28;20198;-69
2022/01/22 10:53:42;;;;;;;23.73;13.75;;;;;;;;;;5041692;28;20363;-69
2022/01/22 10:56:11;;;;;;;20.77;13.55;;;;;;;;;;5041957;28;20231;-69
2022/01/22 10:58:48;;;;;;;24.80;13.90;;;;;;;;;;5041886;28;20244;-70
2022/01/22 11:01:15;;;;;;;23.27;13.95;;;;;;;;;;5045595;28;20198;-70
2022/01/22 11:03:41;;;;;;;22.20;14.38;;;;;;;;;;5045567;28;20199;-69
2022/01/22 11:06:24;;;;;;;18.75;13.18;;;;;;;;;;5045273;28;20218;-69
2022/01/22 11:08:50;;;;;;;26.77;13.68;;;;;;;;;;5045644;28;20209;-69
2022/01/22 11:11:18;;;;;;;22.88;14.43;;;;;;;;;;5045612;28;20197;-69
2022/01/22 11:13:44;;;;;;;27.70;13.95;;;;;;;;;;5045306;28;20194;-70
2022/01/22 11:16:11;;;;;;;21.50;13.73;;;;;;;;;;5045090;28;20259;-69
2022/01/22 11:18:38;;;;;;;28.42;16.15;;;;;;;;;;5045299;28;20264;-69
2022/01/22 11:21:05;;;;;;;22.30;14.00;;;;;;;;;;5045154;28;20193;-70
2022/01/22 11:23:33;;;;;;;20.50;14.50;;;;;;;;;;5045431;28;20197;-69
2022/01/22 11:26:00;;;;;;;20.02;13.88;;;;;;;;;;5045040;28;20197;-69
2022/01/22 11:28:27;;;;;;;21.00;13.90;;;;;;;;;;5045046;28;20205;-70
2022/01/22 11:30:54;;;;;;;23.67;14.25;;;;;;;;;;5045200;28;20261;-69
2022/01/22 11:33:21;;;;;;;19.98;14.48;;;;;;;;;;5044860;28;20204;-69
2022/01/22 11:35:50;;;;;;;17.45;13.32;;;;;;;;;;5045238;28;20198;-69
2022/01/22 11:38:19;;;;;;;23.67;15.38;;;;;;;;;;5045032;28;20372;-70
2022/01/22 11:41:01;;;;;;;26.90;14.38;;;;;;;;;;5045053;28;20205;-69
2022/01/22 11:43:50;;;;;;;23.02;14.80;;;;;;;;;;5044922;28;20505;-69
2022/01/22 11:46:20;;;;;;;17.92;13.80;;;;;;;;;;5044590;28;20198;-70
2022/01/22 11:49:06;;;;;;;19.48;13.50;;;;;;;;;;5044743;28;20261;-69
2022/01/22 11:51:32;;;;;;;25.23;14.48;;;;;;;;;;5044613;28;20513;-69
2022/01/22 11:53:59;;;;;;;24.42;14.32;;;;;;;;;;5044798;28;20198;-70
2022/01/22 11:56:28;;;;;;;20.45;13.98;;;;;;;;;;5044829;28;20493;-69
2022/01/22 11:59:10;;;;;;;20.65;14.40;;;;;;;;;;5044646;28;20536;-70
2022/01/22 12:01:53;;;;;;;21.63;13.32;;;;;;;;;;5041897;28;20198;-69
2022/01/22 12:04:21;;;;;;;21.65;14.60;;;;;;;;;;5044507;28;20205;-69
2022/01/22 12:07:02;;;;;;;22.98;15.13;;;;;;;;;;5044167;28;20272;-69
2022/01/22 12:09:31;;;;;;;22.30;14.85;;;;;;;;;;5044226;28;20208;-69
2022/01/22 12:14:55;;;;;;;19.23;12.68;;;;;;;;;;5044209;28;20212;-69
2022/01/22 12:17:36;;;;;;;24.25;15.90;;;;;;;;;;5044067;28;20217;-69
2022/01/22 12:20:18;;;;;;;22.08;14.32;;;;;;;;;;5043961;28;20224;-69
2022/01/22 12:22:48;;;;;;;19.88;12.82;;;;;;;;;;5044230;28;20527;-70
2022/01/22 12:25:29;;;;;;;21.65;12.98;;;;;;;;;;5043864;28;20236;-69
2022/01/22 12:27:57;;;;;;;21.30;12.55;;;;;;;;;;5031301;28;20194;-69
2022/01/22 12:30:32;;;;;;;15.68;11.88;;;;;;;;;;5044193;28;20201;-69
2022/01/22 12:33:00;;;;;;;17.90;12.50;;;;;;;;;;5044213;28;20197;-69
2022/01/22 12:35:35;;;;;;;17.98;12.48;;;;;;;;;;5043796;28;20236;-69
2022/01/22 12:38:15;;;;;;;18.35;12.90;;;;;;;;;;5043801;28;20197;-69
2022/01/22 12:40:43;;;;;;;19.30;13.70;;;;;;;;;;5043921;28;20570;-70
2022/01/22 12:43:13;;;;;;;18.00;13.00;;;;;;;;;;5043670;28;20198;-69
2022/01/22 12:45:43;;;;;;;16.73;12.57;;;;;;;;;;5043739;28;20248;-69
2022/01/22 12:48:11;;;;;;;18.25;12.73;;;;;;;;;;5043644;28;20268;-70
2022/01/22 12:50:39;;;;;;;19.25;13.57;;;;;;;;;;5043512;28;20194;-69
2022/01/22 12:53:11;;;;;;;16.38;12.48;;;;;;;;;;5043755;28;20202;-69
2022/01/22 12:56:01;;;;;;;16.58;13.40;;;;;;;;;;5043400;28;20504;-69
2022/01/22 12:58:29;;;;;;;17.65;12.60;;;;;;;;;;5043463;28;20202;-69
2022/01/22 13:01:07;;;;;;;17.00;11.43;;;;;;;;;;5043200;28;20233;-69
2022/01/22 13:03:35;;;;;;;13.13;11.23;;;;;;;;;;5043626;28;20421;-69
2022/01/22 13:06:03;;;;;;;19.70;12.80;;;;;;;;;;5043469;28;20217;-70
2022/01/22 13:08:30;;;;;;;20.42;12.02;;;;;;;;;;5043284;28;20251;-69
2022/01/22 13:10:59;;;;;;;18.17;11.82;;;;;;;;;;5043087;28;20240;-69
2022/01/22 13:13:25;;;;;;;19.38;12.80;;;;;;;;;;5043077;28;20206;-69
2022/01/22 13:16:00;;;;;;;18.60;12.93;;;;;;;;;;5042796;28;20206;-70
2022/01/22 13:18:38;;;;;;;18.80;12.68;;;;;;;;;;5043004;28;20197;-69
2022/01/22 13:21:07;;;;;;;17.30;13.27;;;;;;;;;;5043086;28;20225;-69
2022/01/22 13:23:34;;;;;;;13.48;11.27;;;;;;;;;;5041993;28;20224;-69
2022/01/22 13:26:00;;;;;;;14.45;11.25;;;;;;;;;;5042603;28;20236;-69
2022/01/22 13:28:28;;;;;;;13.00;9.82;;;;;;;;;;5042857;28;20214;-69
2022/01/22 13:31:00;;;;;;;10.38;7.93;;;;;;;;;;5042759;28;20232;-69
2022/01/22 13:33:35;;;;;;;10.95;8.30;;;;;;;;;;5042740;28;20198;-69
2022/01/22 13:36:12;;;;;;;10.43;8.40;;;;;;;;;;5042729;28;20520;-70
2022/01/22 13:38:58;;;;;;;11.45;8.90;;;;;;;;;;5042839;28;20247;-69
2022/01/22 13:49:35;;;;;;;10.68;8.07;;;;;;;;;;5042571;28;20223;-69
2022/01/22 13:52:02;;;;;;;11.38;8.25;;;;;;;;;;5042533;28;20396;-69
2022/01/22 13:54:31;;;;;;;9.65;7.57;;;;;;;;;;5042327;28;20204;-69
2022/01/22 13:57:00;;;;;;;11.93;7.72;;;;;;;;;;5042103;28;20260;-69
2022/01/22 13:59:27;;;;;;;9.10;7.95;;;;;;;;;;5042200;28;20229;-70
2022/01/22 14:02:07;;;;;;;15.85;9.30;;;;;;;;;;5042451;28;20260;-69
2022/01/22 14:04:41;;;;;;;17.63;10.15;;;;;;;;;;5042363;28;20201;-69
2022/01/22 14:07:17;;;;;;;10.50;8.98;;;;;;;;;;5041951;28;20226;-69
2022/01/22 14:09:56;;;;;;;12.93;8.95;;;;;;;;;;5042076;28;20500;-70
2022/01/22 14:12:24;;;;;;;16.48;10.85;;;;;;;;;;5042183;28;20229;-70
2022/01/22 14:14:57;;;;;;;17.67;10.10;;;;;;;;;;5042191;28;20205;-69
2022/01/22 14:17:25;;;;;;;11.07;8.70;;;;;;;;;;5041974;28;20204;-70
2022/01/22 14:20:02;;;;;;;12.45;9.35;;;;;;;;;;5042048;28;20217;-69
2022/01/22 14:22:28;;;;;;;13.02;9.98;;;;;;;;;;5042314;28;20206;-69
2022/01/22 14:25:12;;;;;;;13.65;9.50;;;;;;;;;;5042059;28;20205;-69
2022/01/22 14:27:39;;;;;;;13.38;9.65;;;;;;;;;;5041964;28;20198;-70
2022/01/22 14:30:06;;;;;;;13.68;10.05;;;;;;;;;;5042205;28;20201;-69
2022/01/22 14:32:32;;;;;;;12.80;9.30;;;;;;;;;;5041810;28;20197;-69
2022/01/22 14:34:59;;;;;;;16.00;10.75;;;;;;;;;;5044076;28;20207;-69
2022/01/22 14:37:27;;;;;;;13.77;10.38;;;;;;;;;;5045967;28;20198;-69
2022/01/22 14:45:23;;;;;;;13.18;10.00;;;;;;;;;;5045929;28;20200;-70
2022/01/22 14:47:52;;;;;;;12.10;9.50;;;;;;;;;;5045832;28;20197;-69
2022/01/22 14:50:19;;;;;;;15.00;10.95;;;;;;;;;;5046022;28;20465;-69
2022/01/22 14:52:47;;;;;;;13.70;11.18;;;;;;;;;;5045829;28;20212;-69
2022/01/22 14:55:14;;;;;;;15.57;11.75;;;;;;;;;;5045623;28;20198;-69
2022/01/22 14:57:42;;;;;;;15.02;11.30;;;;;;;;;;5045764;28;20391;-69
2022/01/22 15:00:11;;;;;;;17.65;10.65;;;;;;;;;;5045781;28;20225;-70
2022/01/22 15:02:38;;;;;;;15.50;11.88;;;;;;;;;;5044554;28;20381;-69
2022/01/22 15:05:06;;;;;;;19.55;13.20;;;;;;;;;;5045446;28;20264;-69
2022/01/22 15:07:32;;;;;;;20.63;13.73;;;;;;;;;;5045264;28;20225;-70
2022/01/22 15:09:59;;;;;;;16.38;12.20;;;;;;;;;;5045439;28;20193;-70
2022/01/22 15:12:25;;;;;;;19.13;11.57;;;;;;;;;;5045679;28;20212;-70
2022/01/22 15:14:53;;;;;;;13.32;11.25;;;;;;;;;;5045254;28;20209;-69
2022/01/22 15:17:51;;;;;;;14.98;11.88;;;;;;;;;;5045383;28;20544;-69
2022/01/22 15:20:18;;;;;;;12.40;10.68;;;;;;;;;;5045427;28;20217;-69
2022/01/22 15:22:45;;;;;;;19.02;11.90;;;;;;;;;;5045340;28;20252;-69
2022/01/22 15:25:11;;;;;;;15.40;11.90;;;;;;;;;;5045297;28;20205;-69
2022/01/22 15:27:38;;;;;;;18.52;11.98;;;;;;;;;;5045010;28;20228;-69
2022/01/22 15:30:12;;;;;;;19.17;12.15;;;;;;;;;;5045207;28;20194;-69
2022/01/22 15:32:45;;;;;;;17.67;12.80;;;;;;;;;;5045571;28;20489;-69
2022/01/22 15:35:12;;;;;;;19.25;12.82;;;;;;;;;;5045294;28;20571;-69
2022/01/22 15:37:41;;;;;;;17.65;13.35;;;;;;;;;;5044859;28;20198;-69
2022/01/22 15:40:09;;;;;;;17.90;12.40;;;;;;;;;;5045022;28;20252;-69
2022/01/22 15:42:35;;;;;;;16.33;12.40;;;;;;;;;;5044722;28;20198;-69
2022/01/22 15:45:02;;;;;;;15.98;12.25;;;;;;;;;;5044908;28;20420;-69
2022/01/22 15:47:30;;;;;;;14.55;11.45;;;;;;;;;;5043421;28;20198;-69
2022/01/22 15:49:58;;;;;;;16.50;11.18;;;;;;;;;;5044843;28;20194;-69
2022/01/22 15:52:25;;;;;;;14.63;11.32;;;;;;;;;;5044528;28;20201;-69